^^

Nearby METAR Reports

METAR (Meteorological Aerodrome Report) are Airport generated local weather condition reports for use, predominantly by pilots, these reports are also used as part of compliment of data sets required for Chatteris Weathers prediction software - WxSim.

EGUN - Mildenhall Raf, United Kingdom
Distance from station: ESE 19mi, 31km
Updated: 18/10/2019 16:34
Light thunderstorm, Rain, Mostly cloudy
Light thunderstorm, Rain, Mostly cloudy
 Wind from WSW
Wind: WSW 13 mph , 20 km/h
Temperature: 9°C
Wind Chill: 6°C
Dew Point: 9°C
Humidity: 100%
Barometer: 998.6 hPa
Summary: Light thunderstorm, Rain
Clouds: Mostly cloudy
Visibility: 6 miles , 10 km
Cloud details: Mostly cloudy 1036 m
Mostly cloudy 1372 m
2019/10/18 15:34 EGUN 181534Z 25011KT 9999 -TSRA BKN034 BKN045 09/09 A2949 RMK AO2A RAB18 TSB19E34 SLP990 $
EGSC - Cambridge, United Kingdom
Distance from station: SSE 20mi, 32km
Updated: 18/10/2019 16:20
Thunderstorm rain, Partly cloudy
Thunderstorm rain, Partly cloudy
 Wind from W
Wind: W 16 mph , 26 km/h
Temperature: 10°C
Wind Chill: 7°C
Dew Point: 8°C
Humidity: 88%
Barometer: 999 hPa
Summary: Thunderstorm Rain
Clouds: Partly cloudy
Visibility: 6 miles , 10 km
Cloud details: Few Clouds 610 m
Partly cloudy 1219 m
2019/10/18 15:20 EGSC 181520Z 26014KT 9999 4500N TSRA FEW020 SCT040CB 10/08 Q0999
 
EGUL - Lakenheath Raf, United Kingdom
Distance from station: E 22mi, 36km
Updated: 18/10/2019 16:22
Light rain, Few clouds
Light rain, Few clouds
 Wind from WSW
Wind: WSW 33 mph , 54 km/h, Gust: 44 mph , 70 km/h
Temperature: 13°C
Dew Point: 9°C
Humidity: 77%
Barometer: 998.3 hPa
Summary: Light rain
Clouds: Few Clouds
Visibility: 6 miles , 10 km
Cloud details: Few Clouds 1280 m
2019/10/18 15:22 EGUL 181522Z AUTO 25029G38KT 9999 -RA FEW042 13/09 A2948 RMK AO2 LTG DSNT NE AND SW RAE00RAB21 SLP986 $
EGXT - Wittering Raf, United Kingdom
Distance from station: WNW 24mi, 38km
Updated: 18/10/2019 15:50
Light rain, Mostly cloudy
Light rain, Mostly cloudy
 Wind from SW
Wind: SW 15 mph , 24 km/h
Temperature: 10°C
Wind Chill: 7°C
Dew Point: 7°C
Humidity: 82%
Barometer: 996 hPa
Summary: Light rain
Clouds: Mostly cloudy
Visibility: 6 miles , 10 km
Cloud details: Mostly cloudy 1829 m
Mostly cloudy 3353 m
2019/10/18 14:50 EGXT 181450Z AUTO 23013KT 9999 -RA BKN060/// BKN110/// 10/07 Q0996
 
EGYH - Holbeach (aut), United Kingdom
Distance from station: N 27mi, 44km
Updated: 18/10/2019 10:50
NOT Current
Few Clouds
Few Clouds
 Wind from WSW
Wind: WSW 16 mph , 26 km/h
Temperature: 12°C
Dew Point: 10°C
Humidity: 88%
Barometer: 997 hPa
Clouds: Few Clouds
Visibility: 6 miles , 10 km
Cloud details: Few Clouds 610 m
2019/10/18 09:50 EGYH 180950Z 24014KT 9999 FEW020 12/10 Q0997 RMK BLU
EGSS - Stansted Airport, United Kingdom
Distance from station: SE 11mi, 18km
Updated: 18/10/2019 16:20
Few Clouds
Few Clouds
 Wind from SW
Wind: SW 16 mph , 26 km/h
Temperature: 13°C
Dew Point: 9°C
Humidity: 77%
Barometer: 999 hPa
Clouds: Few Clouds
Visibility: 6 miles , 10 km
Cloud details: Few Clouds 1280 m
2019/10/18 15:20 EGSS 181520Z AUTO 22014KT 9999 FEW042 13/09 Q0999
 
EGGW - Luton Airport, United Kingdom
Distance from station: WSW 19mi, 31km
Updated: 18/10/2019 16:20
Thunderstorm
Thunderstorm
 Wind from SW
Wind: SW 17 mph , 28 km/h, Gust: 29 mph , 46 km/h
Temperature: 13°C
Dew Point: 7°C
Humidity: 67%
Barometer: 999 hPa
Clouds: Thunderstorm
Visibility: 6 miles , 10 km
Cloud details: Partly cloudy 1250 m
2019/10/18 15:20 EGGW 181520Z AUTO 22015G25KT 9999 SCT041/// //////TCU 13/07 Q0999
EGLL - London/Heathrow, United Kingdom
Distance from station: SSW 41mi, 66km
Updated: 18/10/2019 16:20
Light rain, Thunderstorm
Light rain, Thunderstorm
 Wind from SW
Wind: SW 17 mph , 28 km/h
Temperature: 14°C
Dew Point: 9°C
Humidity: 72%
Barometer: 1000 hPa
Summary: Light rain
Clouds: Thunderstorm
Visibility: 5 miles , 8 km
Cloud details: Partly cloudy 914 m
Mostly cloudy 1463 m
2019/10/18 15:20 EGLL 181520Z AUTO 22015KT 190V250 8000 -RA SCT030/// BKN048/// //////CB 14/09 Q1000
 
EGKK - London/Gatwick A, United Kingdom
Distance from station: S 60mi, 97km
Updated: 18/10/2019 16:20
Nearby showers, Few clouds
Nearby showers, Few clouds
 Wind from SW
Wind: SW 17 mph , 28 km/h
Temperature: 14°C
Dew Point: 8°C
Humidity: 67%
Barometer: 1001 hPa
Summary: Nearby Showers
Clouds: Few Clouds
Visibility: 6 miles , 10 km
Cloud details: Few Clouds 853 m
2019/10/18 15:20 EGKK 181520Z 22015KT 9999 VCSH FEW028CB 14/08 Q1001
EGUY - Wyton Raf, United Kingdom
Distance from station: SW 11mi, 18km
Updated: 04/10/2015 09:50
NOT Current
Haze, Clear
Haze, Clear
 Wind from SSE
Wind: SSE 2 mph , 4 km/h
Temperature: 11°C
Dew Point: 7°C
Humidity: 77%
Barometer: 1014 hPa
Summary: Haze
Clouds: Clear
Visibility: 4 miles , 6 km
2015/10/04 08:50 EGUY 040850Z 15002KT 6000 HZ SKC 11/07 Q1014 WHT

Met Office METAR data link, decoding METAR data code.